createdAt,value
2023-01-26T00:02:10.974Z,171.02
2023-01-26T00:04:57.905Z,148.35
2023-01-26T00:07:29.415Z,162.00
2023-01-26T00:10:07.449Z,164.13
2023-01-26T00:12:48.043Z,167.50
2023-01-26T00:15:16.408Z,157.93
2023-01-26T00:17:51.485Z,179.60
2023-01-26T00:20:23.958Z,168.98
2023-01-26T00:23:11.353Z,169.13
2023-01-26T00:25:47.277Z,163.20
2023-01-26T00:28:22.159Z,154.95
2023-01-26T00:30:55.195Z,141.48
2023-01-26T00:33:39.480Z,153.20
2023-01-26T00:36:10.925Z,162.98
2023-01-26T00:38:42.316Z,157.65
2023-01-26T00:41:40.744Z,167.60
2023-01-26T00:44:12.045Z,156.63
2023-01-26T00:46:41.781Z,165.65
2023-01-26T00:49:10.235Z,167.60
2023-01-26T00:51:39.417Z,168.10
2023-01-26T00:54:11.392Z,166.68
2023-01-26T00:56:44.191Z,171.98
2023-01-26T00:59:14.583Z,163.80
2023-01-26T01:01:43.577Z,158.70
2023-01-26T01:04:12.247Z,172.68
2023-01-26T01:06:40.778Z,165.65
2023-01-26T01:09:13.855Z,180.55
2023-01-26T01:11:45.671Z,162.98
2023-01-26T01:14:16.589Z,153.15
2023-01-26T01:16:46.600Z,169.80
2023-01-26T01:19:18.543Z,149.27
2023-01-26T01:22:02.018Z,148.65
2023-01-26T01:24:37.520Z,221.57
2023-01-26T01:27:09.783Z,142.13
2023-01-26T01:29:40.917Z,169.90
2023-01-26T01:32:09.838Z,156.27
2023-01-26T01:34:38.069Z,167.45
2023-01-26T01:37:08.661Z,164.77
2023-01-26T01:39:37.181Z,149.93
2023-01-26T01:42:06.128Z,183.95
2023-01-26T01:44:38.285Z,170.88
2023-01-26T01:47:11.627Z,172.90
2023-01-26T01:49:47.360Z,172.00
2023-01-26T01:52:27.487Z,175.40
2023-01-26T01:55:08.508Z,160.23
2023-01-26T01:57:47.020Z,165.63
2023-01-26T02:00:19.705Z,145.15
2023-01-26T02:03:14.796Z,157.52
2023-01-26T02:05:58.966Z,166.38
2023-01-26T02:08:40.412Z,166.25
2023-01-26T02:11:23.107Z,134.90
2023-01-26T02:13:51.656Z,148.93
2023-01-26T02:16:20.639Z,143.23
2023-01-26T02:18:49.141Z,139.15
2023-01-26T02:21:23.284Z,147.57
2023-01-26T02:24:10.614Z,153.15
2023-01-26T02:26:41.451Z,139.43
2023-01-26T02:29:12.179Z,146.68
2023-01-26T02:31:44.511Z,149.45
2023-01-26T02:34:13.249Z,141.80
2023-01-26T02:36:57.651Z,152.40
2023-01-26T02:39:41.567Z,155.00
2023-01-26T02:42:29.885Z,159.60
2023-01-26T02:45:01.672Z,136.25
2023-01-26T02:47:40.386Z,153.88
2023-01-26T02:50:09.773Z,140.93
2023-01-26T02:52:40.961Z,146.55
2023-01-26T02:55:28.675Z,151.60
2023-01-26T02:58:01.016Z,150.33
2023-01-26T03:00:42.064Z,145.52
2023-01-26T03:03:42.472Z,151.77
2023-01-26T03:06:15.172Z,142.93
2023-01-26T03:08:49.158Z,142.63
2023-01-26T03:11:24.123Z,161.85
2023-01-26T03:13:52.456Z,144.77
2023-01-26T03:16:25.188Z,104.28
2023-01-26T03:19:18.781Z,152.25
2023-01-26T03:22:06.628Z,150.80
2023-01-26T03:24:55.994Z,152.07
2023-01-26T03:27:29.725Z,152.80
2023-01-26T03:30:09.314Z,151.13
2023-01-26T03:32:51.519Z,134.25
2023-01-26T03:35:22.701Z,152.77
2023-01-26T03:37:54.754Z,151.40
2023-01-26T03:41:07.451Z,151.75
2023-01-26T03:43:54.892Z,144.10
2023-01-26T03:46:44.616Z,148.65
2023-01-26T03:49:31.752Z,164.25
2023-01-26T03:52:20.525Z,161.18
2023-01-26T03:55:08.460Z,161.63
2023-01-26T03:57:38.381Z,151.43
2023-01-26T04:00:07.294Z,150.13
2023-01-26T04:03:17.674Z,127.40
2023-01-26T04:06:15.713Z,159.57
2023-01-26T04:08:52.567Z,166.85
2023-01-26T04:11:21.265Z,160.50
2023-01-26T04:14:10.395Z,160.23
2023-01-26T04:16:57.206Z,159.20
2023-01-26T04:19:45.888Z,170.70
2023-01-26T04:22:15.883Z,156.90
2023-01-26T04:24:48.299Z,172.55
2023-01-26T04:27:17.781Z,158.98
2023-01-26T04:29:46.521Z,161.52
2023-01-26T04:32:21.165Z,153.40
2023-01-26T04:34:58.053Z,151.43
2023-01-26T04:37:33.116Z,153.32
2023-01-26T04:40:04.288Z,155.40
2023-01-26T04:42:48.942Z,135.00
2023-01-26T04:45:18.746Z,158.45
2023-01-26T04:47:55.187Z,148.57
2023-01-26T04:50:29.302Z,151.68
2023-01-26T04:53:07.019Z,155.68
2023-01-26T04:55:41.495Z,166.07
2023-01-26T04:58:10.805Z,148.60
2023-01-26T05:00:40.932Z,137.10
2023-01-26T05:03:19.975Z,140.43
2023-01-26T05:05:50.935Z,132.38
2023-01-26T05:08:21.743Z,144.23
2023-01-26T05:10:53.466Z,148.00
2023-01-26T05:13:26.748Z,136.27
2023-01-26T05:16:15.565Z,137.80
2023-01-26T05:19:09.887Z,144.80
2023-01-26T05:21:53.535Z,141.85
2023-01-26T05:24:25.485Z,136.63
2023-01-26T05:27:21.050Z,138.02
2023-01-26T05:30:00.348Z,139.73
2023-01-26T05:32:31.618Z,146.48
2023-01-26T05:35:00.661Z,134.27
2023-01-26T05:37:35.903Z,128.77
2023-01-26T05:40:07.144Z,138.63
2023-01-26T05:42:39.049Z,138.07
2023-01-26T05:45:42.625Z,138.73
2023-01-26T05:48:17.807Z,141.55
2023-01-26T05:50:53.409Z,132.98
2023-01-26T05:53:23.043Z,129.93
2023-01-26T05:55:53.562Z,145.10
2023-01-26T05:58:26.284Z,100.70
2023-01-26T06:00:55.207Z,126.70
2023-01-26T06:03:39.700Z,135.55
2023-01-26T06:06:13.459Z,137.57
2023-01-26T06:08:52.223Z,131.90
2023-01-26T06:14:17.684Z,115.95
2023-01-26T06:16:47.761Z,120.97
2023-01-26T06:19:17.157Z,124.88
2023-01-26T06:21:51.131Z,130.07
2023-01-26T06:24:22.573Z,127.72
2023-01-26T06:26:51.228Z,117.60
2023-01-26T06:29:24.051Z,128.52
2023-01-26T06:31:57.079Z,114.15
2023-01-26T06:34:30.961Z,111.15
2023-01-26T06:37:00.585Z,110.85
2023-01-26T06:39:35.542Z,111.00
2023-01-26T06:42:08.386Z,99.00
2023-01-26T06:44:37.890Z,113.32
2023-01-26T06:47:07.732Z,112.03
2023-01-26T06:49:37.649Z,110.95
2023-01-26T06:52:20.069Z,110.95
2023-01-26T06:54:53.628Z,115.28
2023-01-26T06:57:27.122Z,113.25
2023-01-26T07:00:14.728Z,113.28
2023-01-26T07:03:17.116Z,113.70
2023-01-26T07:05:48.265Z,137.35
2023-01-26T07:08:17.321Z,165.18
2023-01-26T07:10:47.603Z,116.60
2023-01-26T07:13:16.174Z,101.15
2023-01-26T07:15:46.599Z,110.43
2023-01-26T07:18:17.248Z,108.68
2023-01-26T07:20:46.274Z,114.85
2023-01-26T07:23:15.556Z,105.90
2023-01-26T07:25:47.475Z,110.00
2023-01-26T07:28:16.208Z,108.75
2023-01-26T07:30:44.947Z,113.70
2023-01-26T07:33:24.654Z,116.57
2023-01-26T07:35:54.377Z,116.63
2023-01-26T07:38:23.422Z,114.43
2023-01-26T07:40:53.374Z,103.30
2023-01-26T07:43:21.886Z,117.75
2023-01-26T07:45:54.369Z,103.55
2023-01-26T07:48:29.816Z,104.43
2023-01-26T07:51:03.480Z,107.80
2023-01-26T07:53:39.577Z,98.88
2023-01-26T07:56:14.746Z,112.05
2023-01-26T07:58:44.016Z,114.18
2023-01-26T08:01:16.137Z,103.93
2023-01-26T08:03:53.636Z,121.47
2023-01-26T08:06:25.303Z,124.28
2023-01-26T08:08:55.002Z,115.85
2023-01-26T08:11:24.358Z,114.20
2023-01-26T08:13:57.196Z,127.63
2023-01-26T08:16:28.713Z,126.63
2023-01-26T08:18:59.979Z,119.57
2023-01-26T08:21:29.724Z,131.75
2023-01-26T08:24:03.426Z,117.95
2023-01-26T08:26:33.398Z,130.43
2023-01-26T08:29:01.711Z,145.43
2023-01-26T08:31:30.148Z,128.18
2023-01-26T08:34:02.157Z,125.05
2023-01-26T08:36:32.977Z,134.40
2023-01-26T08:39:02.785Z,123.68
2023-01-26T08:41:40.516Z,127.93
2023-01-26T08:44:10.497Z,136.18
2023-01-26T08:46:45.206Z,133.75
2023-01-26T08:49:24.589Z,125.03
2023-01-26T08:51:54.461Z,130.55
2023-01-26T08:54:23.415Z,135.98
2023-01-26T08:56:53.433Z,126.55
2023-01-26T08:59:24.456Z,137.30
2023-01-26T09:01:57.000Z,126.28
2023-01-26T09:04:34.190Z,147.52
2023-01-26T09:10:01.474Z,144.00
2023-01-26T09:12:33.052Z,134.05
2023-01-26T09:15:05.259Z,134.18
2023-01-26T09:17:38.597Z,141.07
2023-01-26T09:20:09.843Z,131.35
2023-01-26T09:22:46.120Z,143.00
2023-01-26T09:25:17.026Z,137.13
2023-01-26T09:27:53.734Z,143.48
2023-01-26T09:30:24.887Z,126.05
2023-01-26T09:33:12.569Z,179.60
2023-01-26T09:35:43.797Z,149.38
2023-01-26T09:38:12.145Z,136.10
2023-01-26T09:40:46.702Z,126.95
2023-01-26T09:43:25.985Z,128.20
2023-01-26T09:46:00.979Z,122.03
2023-01-26T09:48:34.961Z,137.63
2023-01-26T09:51:19.745Z,125.50
2023-01-26T09:53:56.222Z,122.28
2023-01-26T09:56:29.243Z,114.60
2023-01-26T09:59:01.835Z,120.30
2023-01-26T10:01:44.873Z,130.15
2023-01-26T10:04:29.837Z,133.38
2023-01-26T10:07:01.311Z,120.70
2023-01-26T10:09:51.591Z,115.40
2023-01-26T10:12:23.788Z,105.60
2023-01-26T10:15:04.044Z,114.88
2023-01-26T10:20:10.657Z,114.10
2023-01-26T10:22:47.471Z,114.00
2023-01-26T10:25:19.209Z,112.97
2023-01-26T10:27:50.848Z,111.70
2023-01-26T10:30:22.839Z,91.00
2023-01-26T10:33:11.584Z,84.22
2023-01-26T10:35:42.221Z,76.30
2023-01-26T10:38:29.755Z,101.25
2023-01-26T10:41:01.039Z,81.78
2023-01-26T10:43:37.979Z,81.07
2023-01-26T10:46:26.215Z,85.90
2023-01-26T10:48:56.802Z,61.17
2023-01-26T10:51:27.880Z,69.93
2023-01-26T10:54:14.757Z,81.97
2023-01-26T10:56:48.006Z,74.68
2023-01-26T10:59:24.061Z,72.80
2023-01-26T11:01:57.168Z,68.28
2023-01-26T11:04:26.206Z,68.60
2023-01-26T11:06:56.097Z,73.28
2023-01-26T11:09:31.513Z,64.28
2023-01-26T11:12:04.715Z,54.45
2023-01-26T11:14:35.950Z,67.47
2023-01-26T11:17:23.693Z,58.92
2023-01-26T11:20:01.718Z,108.85
2023-01-26T11:22:53.513Z,85.70
2023-01-26T11:25:28.690Z,77.93
2023-01-26T11:28:26.168Z,59.65
2023-01-26T11:31:08.419Z,64.95
2023-01-26T11:33:36.499Z,60.42
2023-01-26T11:36:10.597Z,63.67
2023-01-26T11:38:42.628Z,49.88
2023-01-26T11:41:13.827Z,57.72
2023-01-26T11:43:42.059Z,59.33
2023-01-26T11:46:22.938Z,54.40
2023-01-26T11:49:01.724Z,48.28
2023-01-26T11:51:49.647Z,61.55
2023-01-26T11:54:29.348Z,48.88
2023-01-26T11:57:04.535Z,58.20
2023-01-26T11:59:36.840Z,47.17
2023-01-26T12:02:20.340Z,52.13
2023-01-26T12:04:49.000Z,43.08
2023-01-26T12:07:22.193Z,41.25
2023-01-26T12:09:53.249Z,45.75
2023-01-26T12:12:43.165Z,51.13
2023-01-26T12:15:14.407Z,51.25
2023-01-26T12:17:43.242Z,48.63
2023-01-26T12:20:41.106Z,50.30
2023-01-26T12:23:09.298Z,48.10
2023-01-26T12:25:39.004Z,43.97
2023-01-26T12:28:16.529Z,49.58
2023-01-26T12:30:52.761Z,54.95
2023-01-26T12:33:21.964Z,53.65
2023-01-26T12:35:52.948Z,53.22
2023-01-26T12:38:38.010Z,48.03
2023-01-26T12:41:09.088Z,56.50
2023-01-26T12:43:49.253Z,53.50
2023-01-26T12:46:18.003Z,77.15
2023-01-26T12:49:05.055Z,58.83
2023-01-26T12:51:43.253Z,54.20
2023-01-26T12:54:27.463Z,46.15
2023-01-26T13:05:54.969Z,48.65
2023-01-26T13:08:51.382Z,45.28
2023-01-26T13:11:39.502Z,47.90
2023-01-26T13:14:25.184Z,49.70
2023-01-26T13:16:56.643Z,48.28
2023-01-26T13:19:43.466Z,42.35
2023-01-26T13:22:20.639Z,49.88
2023-01-26T13:25:01.302Z,43.97
2023-01-26T13:27:33.386Z,46.17
2023-01-26T13:30:04.664Z,50.67
2023-01-26T13:32:37.889Z,51.78
2023-01-26T13:35:11.555Z,58.97
2023-01-26T13:37:46.170Z,59.05
2023-01-26T13:40:19.458Z,78.20
2023-01-26T13:42:52.818Z,57.47
2023-01-26T13:45:30.483Z,75.55
2023-01-26T13:47:59.319Z,60.88
2023-01-26T13:50:38.783Z,57.75
2023-01-26T13:53:28.453Z,62.17
2023-01-26T13:55:59.750Z,62.33
2023-01-26T13:58:35.063Z,70.78
2023-01-26T14:01:08.051Z,72.03
2023-01-26T14:03:40.384Z,60.03
2023-01-26T14:06:19.956Z,74.03
2023-01-26T14:08:52.069Z,75.80
2023-01-26T14:11:24.371Z,97.97
2023-01-26T14:13:56.030Z,79.70
2023-01-26T14:16:32.261Z,78.10
2023-01-26T14:19:18.336Z,90.13
2023-01-26T14:21:52.585Z,70.93
2023-01-26T14:24:31.110Z,77.70
2023-01-26T14:27:02.953Z,94.93
2023-01-26T14:29:37.854Z,102.30
2023-01-26T14:32:06.434Z,90.60
2023-01-26T14:34:35.624Z,110.68
2023-01-26T14:37:05.917Z,95.45
2023-01-26T14:39:35.015Z,110.68
2023-01-26T14:42:04.387Z,99.43
2023-01-26T14:44:34.117Z,105.22
2023-01-26T14:47:07.164Z,111.57
2023-01-26T14:49:48.158Z,89.22
2023-01-26T14:52:23.940Z,107.47
2023-01-26T14:54:54.368Z,98.95
2023-01-26T14:57:24.691Z,122.85
2023-01-26T14:59:57.963Z,111.03
2023-01-26T15:02:28.496Z,124.90
2023-01-26T15:05:02.437Z,128.55
2023-01-26T15:07:38.979Z,125.00
2023-01-26T15:10:25.772Z,112.50
2023-01-26T15:13:17.287Z,118.80
2023-01-26T15:15:48.989Z,117.53
2023-01-26T15:18:21.465Z,112.13
2023-01-26T15:21:00.329Z,107.85
2023-01-26T15:23:31.204Z,111.35
2023-01-26T15:26:06.293Z,109.75
2023-01-26T15:28:35.818Z,121.13
2023-01-26T15:31:04.760Z,107.03
2023-01-26T15:33:48.014Z,131.23
2023-01-26T15:36:25.633Z,111.88
2023-01-26T15:38:59.311Z,106.95
2023-01-26T15:41:28.736Z,123.55
2023-01-26T15:43:59.601Z,114.22
2023-01-26T15:46:28.046Z,136.18
2023-01-26T15:48:56.859Z,138.27
2023-01-26T15:51:27.742Z,118.32
2023-01-26T15:53:58.952Z,135.13
2023-01-26T15:56:29.923Z,108.65
2023-01-26T15:59:02.837Z,112.60
2023-01-26T16:01:32.273Z,129.52
2023-01-26T16:04:01.643Z,113.22
2023-01-26T16:06:33.399Z,106.57
2023-01-26T16:09:08.026Z,119.90
2023-01-26T16:11:42.445Z,120.85
2023-01-26T16:14:18.860Z,107.85
2023-01-26T16:16:49.945Z,122.38
2023-01-26T16:19:33.736Z,120.00
2023-01-26T16:22:06.643Z,102.07
2023-01-26T16:24:36.789Z,145.25
2023-01-26T16:27:06.282Z,123.75
2023-01-26T16:29:35.633Z,109.80
2023-01-26T16:32:10.134Z,100.80
2023-01-26T16:34:39.316Z,121.60
2023-01-26T16:37:12.908Z,129.98
2023-01-26T16:39:42.525Z,104.47
2023-01-26T16:42:14.636Z,102.97
2023-01-26T16:47:15.511Z,92.43
2023-01-26T16:49:47.958Z,97.28
2023-01-26T16:52:17.127Z,112.32
2023-01-26T16:54:48.616Z,109.07
2023-01-26T16:57:19.629Z,120.63
2023-01-26T16:59:48.929Z,112.20
2023-01-26T17:02:24.227Z,100.60
2023-01-26T17:04:55.498Z,101.72
2023-01-26T17:07:24.944Z,107.85
2023-01-26T17:09:53.511Z,101.88
2023-01-26T17:12:22.002Z,113.53
2023-01-26T17:14:50.587Z,106.05
2023-01-26T17:17:22.045Z,129.95
2023-01-26T17:19:57.122Z,123.22
2023-01-26T17:22:38.801Z,127.65
2023-01-26T17:25:09.732Z,137.30
2023-01-26T17:27:44.414Z,107.13
2023-01-26T17:30:13.371Z,122.05
2023-01-26T17:32:51.927Z,116.55
2023-01-26T17:35:23.013Z,126.60
2023-01-26T17:37:52.144Z,138.18
2023-01-26T17:40:25.401Z,154.25
2023-01-26T17:42:56.754Z,121.45
2023-01-26T17:45:30.381Z,133.18
2023-01-26T17:48:02.209Z,112.07
2023-01-26T17:50:34.618Z,101.40
2023-01-26T17:53:06.778Z,120.55
2023-01-26T17:55:36.861Z,101.95
2023-01-26T17:58:10.593Z,93.32
2023-01-26T18:00:45.596Z,89.20
2023-01-26T18:03:35.313Z,95.45
2023-01-26T18:06:05.104Z,101.43
2023-01-26T18:08:37.681Z,135.15
2023-01-26T18:11:07.407Z,122.95
2023-01-26T18:13:36.400Z,103.32
2023-01-26T18:16:08.885Z,132.35
2023-01-26T18:21:16.870Z,98.00
2023-01-26T18:23:47.974Z,100.45
2023-01-26T18:26:18.362Z,118.10
2023-01-26T18:28:50.740Z,97.75
2023-01-26T18:31:24.500Z,122.78
2023-01-26T18:33:54.405Z,97.53
2023-01-26T18:36:23.087Z,138.63
2023-01-26T18:38:55.593Z,109.60
2023-01-26T18:41:25.111Z,107.78
2023-01-26T18:43:57.834Z,93.57
2023-01-26T18:46:27.890Z,102.78
2023-01-26T18:49:00.475Z,103.30
2023-01-26T18:51:36.606Z,106.15
2023-01-26T18:54:05.808Z,101.07
2023-01-26T18:56:37.988Z,87.63
2023-01-26T18:59:10.441Z,92.70
2023-01-26T19:01:40.476Z,102.68
2023-01-26T19:04:10.496Z,104.50
2023-01-26T19:06:44.427Z,89.35
2023-01-26T19:09:15.956Z,96.22
2023-01-26T19:11:44.341Z,95.47
2023-01-26T19:14:13.608Z,102.07
2023-01-26T19:16:43.932Z,88.32
2023-01-26T19:19:12.877Z,90.95
2023-01-26T19:21:41.754Z,90.22
2023-01-26T19:24:16.100Z,87.38
2023-01-26T19:26:46.587Z,86.88
2023-01-26T19:29:17.182Z,84.47
2023-01-26T19:31:45.829Z,90.78
2023-01-26T19:34:16.983Z,104.68
2023-01-26T19:36:48.078Z,74.68
2023-01-26T19:39:19.053Z,90.85
2023-01-26T19:41:47.922Z,81.65
2023-01-26T19:44:16.816Z,73.35
2023-01-26T19:46:45.459Z,83.30
2023-01-26T19:49:15.086Z,88.60
2023-01-26T19:51:46.546Z,67.68
2023-01-26T19:54:15.365Z,88.68
2023-01-26T19:56:47.662Z,89.72
2023-01-26T19:59:17.699Z,87.40
2023-01-26T20:01:47.011Z,82.13
2023-01-26T20:04:19.774Z,88.38
2023-01-26T20:06:50.125Z,91.77
2023-01-26T20:09:18.545Z,95.88
2023-01-26T20:11:50.032Z,67.60
2023-01-26T20:14:22.108Z,76.28
2023-01-26T20:16:50.899Z,73.32
2023-01-26T20:19:20.472Z,72.80
2023-01-26T20:21:50.022Z,71.00
2023-01-26T20:24:19.170Z,62.03
2023-01-26T20:26:48.055Z,63.72
2023-01-26T20:29:18.473Z,54.35
2023-01-26T20:31:49.779Z,56.60
2023-01-26T20:34:23.299Z,54.40
2023-01-26T20:36:56.331Z,67.00
2023-01-26T20:39:25.349Z,46.72
2023-01-26T20:41:56.348Z,50.50
2023-01-26T20:44:25.974Z,55.22
2023-01-26T20:47:00.418Z,52.40
2023-01-26T20:49:34.554Z,52.88
2023-01-26T20:52:06.024Z,39.63
2023-01-26T20:57:05.806Z,38.65
2023-01-26T20:59:37.001Z,36.75
2023-01-26T21:02:06.599Z,31.30
2023-01-26T21:04:38.091Z,41.08
2023-01-26T21:07:09.716Z,31.92
2023-01-26T21:09:38.169Z,32.20
2023-01-26T21:12:07.236Z,23.80
2023-01-26T21:14:39.478Z,33.38
2023-01-26T21:17:08.648Z,27.10
2023-01-26T21:19:38.816Z,24.02
2023-01-26T21:22:07.124Z,27.90
2023-01-26T21:24:37.608Z,22.13
2023-01-26T21:27:07.160Z,35.33
2023-01-26T21:29:40.307Z,25.13
2023-01-26T21:32:09.070Z,18.50
2023-01-26T21:34:40.093Z,25.13
2023-01-26T21:37:08.500Z,25.98
2023-01-26T21:39:39.760Z,12.70
2023-01-26T21:42:08.942Z,18.98
2023-01-26T21:45:12.209Z,18.48
2023-01-26T21:48:05.550Z,14.23
2023-01-26T21:50:48.033Z,21.50
2023-01-26T21:53:18.973Z,12.65
2023-01-26T21:55:48.000Z,31.42
2023-01-26T21:58:34.148Z,14.68
2023-01-26T22:01:09.566Z,15.13
2023-01-26T22:04:00.200Z,18.27
2023-01-26T22:06:29.805Z,21.23
2023-01-26T22:09:01.151Z,19.15
2023-01-26T22:11:34.733Z,25.83
2023-01-26T22:14:03.304Z,15.63
2023-01-26T22:16:32.692Z,19.48
2023-01-26T22:19:02.297Z,16.75
2023-01-26T22:21:36.025Z,18.40
2023-01-26T22:24:08.788Z,15.90
2023-01-26T22:26:39.800Z,17.20
2023-01-26T22:29:09.314Z,15.07
2023-01-26T22:31:38.231Z,25.80
2023-01-26T22:36:41.335Z,14.52
2023-01-26T22:39:12.568Z,21.52
2023-01-26T22:41:44.108Z,17.25
2023-01-26T22:44:12.780Z,12.48
2023-01-26T22:46:41.537Z,17.65
2023-01-26T22:49:10.984Z,19.73
2023-01-26T22:51:41.299Z,17.10
2023-01-26T22:54:17.777Z,17.77
2023-01-26T22:56:46.262Z,15.40
2023-01-26T22:59:14.796Z,17.73
2023-01-26T23:01:43.392Z,17.33
2023-01-26T23:04:12.249Z,18.83
2023-01-26T23:06:41.833Z,13.93
2023-01-26T23:09:10.613Z,15.00
2023-01-26T23:11:42.517Z,16.98
2023-01-26T23:14:11.389Z,23.63
2023-01-26T23:16:41.554Z,15.07
2023-01-26T23:19:10.028Z,14.75
2023-01-26T23:21:41.571Z,24.25
2023-01-26T23:24:12.497Z,13.50
2023-01-26T23:26:42.418Z,11.27
2023-01-26T23:29:13.359Z,8.27
2023-01-26T23:31:43.984Z,14.55
2023-01-26T23:34:12.737Z,16.77
2023-01-26T23:36:43.455Z,14.57
2023-01-26T23:39:12.891Z,14.52
2023-01-26T23:41:46.907Z,19.48
2023-01-26T23:44:16.861Z,10.07
2023-01-26T23:46:51.869Z,12.27
2023-01-26T23:49:22.597Z,13.02
2023-01-26T23:51:50.978Z,21.05
2023-01-26T23:54:21.911Z,23.27
2023-01-26T23:56:52.317Z,17.33
2023-01-26T23:59:26.985Z,12.45
